createdAt,value
2018-06-13T00:01:53.402Z,16.17
2018-06-13T00:02:53.374Z,16.13
2018-06-13T00:04:48.357Z,16.08
2018-06-13T00:05:47.815Z,16.14
2018-06-13T00:07:42.293Z,16.14
2018-06-13T00:08:42.284Z,16.10
2018-06-13T00:10:35.720Z,16.16
2018-06-13T00:11:35.673Z,16.06
2018-06-13T00:13:32.140Z,16.17
2018-06-13T00:14:31.629Z,16.10
2018-06-13T00:16:26.089Z,16.14
2018-06-13T00:17:25.086Z,16.04
2018-06-13T00:19:21.050Z,15.96
2018-06-13T00:20:21.046Z,15.95
2018-06-13T00:22:19.992Z,15.92
2018-06-13T00:23:20.012Z,15.84
2018-06-13T00:25:15.116Z,15.88
2018-06-13T00:26:13.591Z,15.81
2018-06-13T00:28:08.558Z,15.80
2018-06-13T00:29:08.044Z,15.86
2018-06-13T00:31:03.004Z,15.78
2018-06-13T00:32:02.465Z,15.71
2018-06-13T00:33:58.901Z,15.73
2018-06-13T00:34:58.914Z,15.74
2018-06-13T00:36:54.387Z,15.70
2018-06-13T00:37:54.861Z,15.65
2018-06-13T00:39:50.279Z,15.60
2018-06-13T00:40:50.286Z,15.56
2018-06-13T00:42:46.264Z,15.49
2018-06-13T00:43:46.238Z,15.45
2018-06-13T00:45:42.171Z,15.45
2018-06-13T00:46:43.117Z,15.40
2018-06-13T00:48:38.144Z,15.34
2018-06-13T00:49:38.134Z,15.38
2018-06-13T00:51:32.616Z,15.40
2018-06-13T00:52:32.579Z,15.27
2018-06-13T00:54:28.557Z,15.25
2018-06-13T00:55:28.515Z,15.16
2018-06-13T00:57:23.978Z,15.13
2018-06-13T00:58:22.990Z,15.10
2018-06-13T01:00:17.445Z,15.10
2018-06-13T01:01:17.387Z,14.97
2018-06-13T01:03:14.350Z,15.01
2018-06-13T01:04:13.831Z,15.05
2018-06-13T01:06:08.285Z,15.01
2018-06-13T01:07:07.755Z,15.04
2018-06-13T01:09:02.203Z,15.02
2018-06-13T01:10:02.710Z,14.95
2018-06-13T01:11:56.645Z,15.02
2018-06-13T01:12:56.652Z,15.08
2018-06-13T01:14:52.634Z,15.02
2018-06-13T01:15:52.628Z,15.02
2018-06-13T01:17:47.103Z,14.93
2018-06-13T01:18:47.079Z,14.95
2018-06-13T01:20:40.547Z,14.97
2018-06-13T01:21:40.474Z,15.01
2018-06-13T01:23:34.955Z,14.94
2018-06-13T01:24:34.931Z,14.94
2018-06-13T01:26:30.900Z,14.80
2018-06-13T01:27:30.932Z,14.80
2018-06-13T01:29:26.835Z,14.80
2018-06-13T01:30:25.344Z,14.79
2018-06-13T01:32:20.290Z,14.75
2018-06-13T01:33:19.771Z,14.67
2018-06-13T01:35:14.253Z,14.61
2018-06-13T01:36:14.739Z,14.52
2018-06-13T01:38:10.188Z,14.56
2018-06-13T01:39:10.144Z,14.63
2018-06-13T01:41:04.575Z,14.63
2018-06-13T01:42:04.569Z,14.59
2018-06-13T01:44:00.541Z,14.59
2018-06-13T01:45:00.514Z,14.59
2018-06-13T01:46:56.491Z,14.66
2018-06-13T01:47:56.451Z,14.46
2018-06-13T01:49:50.426Z,14.46
2018-06-13T01:50:50.415Z,14.52
2018-06-13T01:52:44.376Z,14.57
2018-06-13T01:53:44.363Z,14.57
2018-06-13T01:55:38.837Z,14.53
2018-06-13T01:56:38.808Z,14.56
2018-06-13T01:58:33.249Z,14.49
2018-06-13T01:59:33.780Z,14.53
2018-06-13T02:01:29.734Z,14.44
2018-06-13T02:02:29.208Z,14.46
2018-06-13T02:04:25.143Z,14.45
2018-06-13T02:05:25.165Z,14.46
2018-06-13T02:07:20.103Z,14.46
2018-06-13T02:08:19.602Z,14.34
2018-06-13T02:10:15.574Z,14.38
2018-06-13T02:11:15.552Z,14.49
2018-06-13T02:13:09.515Z,14.41
2018-06-13T02:14:09.515Z,14.44
2018-06-13T02:16:04.991Z,14.42
2018-06-13T02:17:04.943Z,14.38
2018-06-13T02:19:01.399Z,14.39
2018-06-13T02:20:00.892Z,14.33
2018-06-13T02:21:56.856Z,14.28
2018-06-13T02:22:56.844Z,14.31
2018-06-13T02:24:55.289Z,14.24
2018-06-13T02:25:55.295Z,14.33
2018-06-13T02:27:49.274Z,14.21
2018-06-13T02:28:49.242Z,14.31
2018-06-13T02:30:45.193Z,14.31
2018-06-13T02:31:45.146Z,14.36
2018-06-13T02:33:41.100Z,14.26
2018-06-13T02:34:41.588Z,14.30
2018-06-13T02:36:37.033Z,14.38
2018-06-13T02:37:37.030Z,14.30
2018-06-13T02:39:35.499Z,14.38
2018-06-13T02:40:34.986Z,14.41
2018-06-13T02:42:31.948Z,14.39
2018-06-13T02:43:30.915Z,14.48
2018-06-13T02:45:25.381Z,14.48
2018-06-13T02:46:25.367Z,14.46
2018-06-13T02:48:20.326Z,14.46
2018-06-13T02:49:19.840Z,14.45
2018-06-13T02:51:15.714Z,14.53
2018-06-13T02:52:15.700Z,14.56
2018-06-13T02:54:10.679Z,14.56
2018-06-13T02:55:11.595Z,14.61
2018-06-13T02:57:06.606Z,14.53
2018-06-13T02:58:06.094Z,14.52
2018-06-13T03:00:03.044Z,14.49
2018-06-13T03:01:03.041Z,14.45
2018-06-13T03:02:59.510Z,14.45
2018-06-13T03:03:58.004Z,14.49
2018-06-13T03:05:53.965Z,14.45
2018-06-13T03:06:53.937Z,14.41
2018-06-13T03:08:49.893Z,14.42
2018-06-13T03:09:49.872Z,14.44
2018-06-13T03:11:46.324Z,14.41
2018-06-13T03:12:45.812Z,14.42
2018-06-13T03:14:41.805Z,14.51
2018-06-13T03:15:41.776Z,14.38
2018-06-13T03:17:37.716Z,14.51
2018-06-13T03:18:38.229Z,14.45
2018-06-13T03:20:34.681Z,14.48
2018-06-13T03:21:33.645Z,14.42
2018-06-13T03:23:30.624Z,14.45
2018-06-13T03:24:29.600Z,14.45
2018-06-13T03:26:26.054Z,14.42
2018-06-13T03:27:25.540Z,14.38
2018-06-13T03:29:21.515Z,14.42
2018-06-13T03:30:21.483Z,14.45
2018-06-13T03:32:17.446Z,14.45
2018-06-13T03:33:17.932Z,14.48
2018-06-13T03:35:13.381Z,14.45
2018-06-13T03:36:13.882Z,14.56
2018-06-13T03:38:07.863Z,14.59
2018-06-13T03:39:07.836Z,14.53
2018-06-13T03:41:02.851Z,14.52
2018-06-13T03:42:02.245Z,14.44
2018-06-13T03:43:59.700Z,14.51
2018-06-13T03:44:58.705Z,14.56
2018-06-13T03:46:54.164Z,14.60
2018-06-13T03:47:54.115Z,14.53
2018-06-13T03:49:49.076Z,14.53
2018-06-13T03:50:48.552Z,14.66
2018-06-13T03:52:45.519Z,14.66
2018-06-13T03:53:44.489Z,14.74
2018-06-13T03:55:40.950Z,14.74
2018-06-13T03:56:40.423Z,14.67
2018-06-13T03:58:38.375Z,14.70
2018-06-13T03:59:36.874Z,14.66
2018-06-13T04:01:32.341Z,14.75
2018-06-13T04:02:32.349Z,14.74
2018-06-13T04:04:27.305Z,14.87
2018-06-13T04:05:27.316Z,14.75
2018-06-13T04:07:23.242Z,14.82
2018-06-13T04:08:22.746Z,14.83
2018-06-13T04:10:18.705Z,14.79
2018-06-13T04:11:18.662Z,14.93
2018-06-13T04:13:12.122Z,14.80
2018-06-13T04:14:12.115Z,14.94
2018-06-13T04:16:09.065Z,14.95
2018-06-13T04:17:08.061Z,14.93
2018-06-13T04:19:02.532Z,14.93
2018-06-13T04:20:02.494Z,14.97
2018-06-13T04:21:58.459Z,15.01
2018-06-13T04:22:58.439Z,14.85
2018-06-13T04:24:55.901Z,15.04
2018-06-13T04:25:54.369Z,14.95
2018-06-13T04:27:50.331Z,14.97
2018-06-13T04:28:50.844Z,14.98
2018-06-13T04:30:46.256Z,15.01
2018-06-13T04:31:46.773Z,14.98
2018-06-13T04:33:42.710Z,14.97
2018-06-13T04:34:42.216Z,14.93
2018-06-13T04:36:38.675Z,15.00
2018-06-13T04:37:39.678Z,15.00
2018-06-13T04:39:35.119Z,14.97
2018-06-13T04:40:34.590Z,15.02
2018-06-13T04:42:30.048Z,15.00
2018-06-13T04:43:30.553Z,15.02
2018-06-13T04:45:25.007Z,15.12
2018-06-13T04:46:25.000Z,15.02
2018-06-13T04:48:20.954Z,15.01
2018-06-13T04:49:20.938Z,15.12
2018-06-13T04:51:16.882Z,15.12
2018-06-13T04:52:16.352Z,15.05
2018-06-13T04:54:09.797Z,15.05
2018-06-13T04:55:09.805Z,15.01
2018-06-13T04:57:05.766Z,15.00
2018-06-13T04:58:05.766Z,14.97
2018-06-13T05:00:01.753Z,15.10
2018-06-13T05:01:02.748Z,15.10
2018-06-13T05:02:56.216Z,15.10
2018-06-13T05:03:56.193Z,15.05
2018-06-13T05:05:52.678Z,15.25
2018-06-13T05:06:52.166Z,15.19
2018-06-13T05:08:48.096Z,15.30
2018-06-13T05:09:48.111Z,15.37
2018-06-13T05:11:44.985Z,15.30
2018-06-13T05:12:44.055Z,15.31
2018-06-13T05:14:40.024Z,15.45
2018-06-13T05:15:40.917Z,15.35
2018-06-13T05:17:39.949Z,15.37
2018-06-13T05:18:38.963Z,15.45
2018-06-13T05:20:34.930Z,15.44
2018-06-13T05:21:34.878Z,15.40
2018-06-13T05:23:30.327Z,15.44
2018-06-13T05:24:29.832Z,15.47
2018-06-13T05:26:24.265Z,15.47
2018-06-13T05:27:23.780Z,15.51
2018-06-13T05:29:19.215Z,15.49
2018-06-13T05:30:18.217Z,15.49
2018-06-13T05:32:14.150Z,15.59
2018-06-13T05:33:14.156Z,15.60
2018-06-13T05:35:11.609Z,16.13
2018-06-13T05:36:10.619Z,16.22
2018-06-13T05:38:04.588Z,16.26
2018-06-13T05:39:04.055Z,16.26
2018-06-13T05:40:57.964Z,16.36
2018-06-13T05:41:58.008Z,16.33
2018-06-13T05:43:54.007Z,16.33
2018-06-13T05:44:53.912Z,16.30
2018-06-13T05:46:49.378Z,16.25
2018-06-13T05:47:50.369Z,16.29
2018-06-13T05:49:45.337Z,16.25
2018-06-13T05:50:44.367Z,16.21
2018-06-13T05:52:40.795Z,15.96
2018-06-13T05:53:40.295Z,15.81
2018-06-13T05:55:36.785Z,15.75
2018-06-13T05:56:36.314Z,15.71
2018-06-13T05:58:30.739Z,15.65
2018-06-13T05:59:30.693Z,15.56
2018-06-13T06:01:26.727Z,15.59
2018-06-13T06:02:27.153Z,15.60
2018-06-13T06:04:31.120Z,15.58
2018-06-13T06:05:31.589Z,15.56
2018-06-13T06:07:28.082Z,15.59
2018-06-13T06:08:27.665Z,15.60
2018-06-13T06:10:21.036Z,15.59
2018-06-13T06:11:20.974Z,15.44
2018-06-13T06:13:16.941Z,15.40
2018-06-13T06:14:16.447Z,15.52
2018-06-13T06:16:14.400Z,15.52
2018-06-13T06:17:14.064Z,15.45
2018-06-13T06:19:10.540Z,15.53
2018-06-13T06:20:10.056Z,15.63
2018-06-13T06:22:05.964Z,15.53
2018-06-13T06:23:06.479Z,15.59
2018-06-13T06:25:00.927Z,15.68
2018-06-13T06:26:00.919Z,15.81
2018-06-13T06:27:56.877Z,15.80
2018-06-13T06:28:56.345Z,15.81
2018-06-13T06:30:52.257Z,15.84
2018-06-13T06:31:52.255Z,15.88
2018-06-13T06:33:48.248Z,15.96
2018-06-13T06:34:49.216Z,15.96
2018-06-13T06:36:44.715Z,15.99
2018-06-13T06:37:45.693Z,15.98
2018-06-13T06:39:39.635Z,16.14
2018-06-13T06:40:39.654Z,16.21
2018-06-13T06:42:33.133Z,16.32
2018-06-13T06:43:33.117Z,16.33
2018-06-13T06:45:29.096Z,16.44
2018-06-13T06:46:30.104Z,16.59
2018-06-13T06:48:25.090Z,16.62
2018-06-13T06:49:25.036Z,16.69
2018-06-13T06:51:20.998Z,16.82
2018-06-13T06:52:20.975Z,16.92
2018-06-13T06:54:16.974Z,16.91
2018-06-13T06:55:17.014Z,16.95
2018-06-13T06:57:11.386Z,17.02
2018-06-13T06:58:11.931Z,17.10
2018-06-13T07:00:07.385Z,17.20
2018-06-13T07:01:07.362Z,17.15
2018-06-13T07:03:04.337Z,16.95
2018-06-13T07:04:03.823Z,16.94
2018-06-13T07:05:59.281Z,16.74
2018-06-13T07:07:00.286Z,16.67
2018-06-13T07:08:55.276Z,16.52
2018-06-13T07:09:55.235Z,16.54
2018-06-13T07:11:51.171Z,16.47
2018-06-13T07:12:51.176Z,16.54
2018-06-13T07:14:47.152Z,16.42
2018-06-13T07:15:47.140Z,16.40
2018-06-13T07:17:43.069Z,16.32
2018-06-13T07:18:43.108Z,16.37
2018-06-13T07:20:39.065Z,16.25
2018-06-13T07:21:39.003Z,16.27
2018-06-13T07:23:34.974Z,16.30
2018-06-13T07:24:35.460Z,16.34
2018-06-13T07:26:30.925Z,16.40
2018-06-13T07:27:30.894Z,16.40
2018-06-13T07:29:26.864Z,16.55
2018-06-13T07:30:27.346Z,16.65
2018-06-13T07:32:23.322Z,16.77
2018-06-13T07:33:23.301Z,16.80
2018-06-13T07:35:19.273Z,16.74
2018-06-13T07:36:18.742Z,16.87
2018-06-13T07:38:16.214Z,16.87
2018-06-13T07:39:15.199Z,16.80
2018-06-13T07:41:10.628Z,16.81
2018-06-13T07:42:10.613Z,16.81
2018-06-13T07:44:06.585Z,16.85
2018-06-13T07:45:07.076Z,16.82
2018-06-13T07:47:02.517Z,16.77
2018-06-13T07:48:02.527Z,16.77
2018-06-13T07:49:59.989Z,16.74
2018-06-13T07:50:58.475Z,16.72
2018-06-13T07:52:54.447Z,16.66
2018-06-13T07:53:54.422Z,16.58
2018-06-13T07:55:50.383Z,16.57
2018-06-13T07:56:47.866Z,16.48
2018-06-13T07:58:43.798Z,16.52
2018-06-13T07:59:43.823Z,16.57
2018-06-13T08:01:39.783Z,16.57
2018-06-13T08:02:39.782Z,16.57
2018-06-13T08:04:36.237Z,16.67
2018-06-13T08:05:35.748Z,16.63
2018-06-13T08:07:34.247Z,16.57
2018-06-13T08:08:33.958Z,16.59
2018-06-13T08:10:28.285Z,16.57
2018-06-13T08:11:28.278Z,16.59
2018-06-13T08:13:24.247Z,16.55
2018-06-13T08:14:23.234Z,16.51
2018-06-13T08:16:18.704Z,16.58
2018-06-13T08:17:18.681Z,16.59
2018-06-13T08:19:14.619Z,16.65
2018-06-13T08:20:15.139Z,16.67
2018-06-13T08:22:09.096Z,16.73
2018-06-13T08:23:09.091Z,16.66
2018-06-13T08:25:05.046Z,16.69
2018-06-13T08:26:05.551Z,16.66
2018-06-13T08:28:03.428Z,16.59
2018-06-13T08:28:59.495Z,16.54
2018-06-13T08:30:55.478Z,16.47
2018-06-13T08:31:55.434Z,16.42
2018-06-13T08:33:51.402Z,16.40
2018-06-13T08:34:51.356Z,16.42
2018-06-13T08:36:47.348Z,16.47
2018-06-13T08:37:47.834Z,16.52
2018-06-13T08:39:43.281Z,16.40
2018-06-13T08:40:43.271Z,16.48
2018-06-13T08:42:40.237Z,16.48
2018-06-13T08:43:39.283Z,16.45
2018-06-13T08:45:35.738Z,16.36
2018-06-13T08:46:35.247Z,16.37
2018-06-13T08:48:31.229Z,16.39
2018-06-13T08:49:31.696Z,16.39
2018-06-13T08:51:24.670Z,16.44
2018-06-13T08:52:24.639Z,16.39
2018-06-13T08:54:22.115Z,16.40
2018-06-13T08:55:21.597Z,16.37
2018-06-13T08:57:18.556Z,16.40
2018-06-13T08:58:17.536Z,16.39
2018-06-13T09:00:13.995Z,16.47
2018-06-13T09:01:13.499Z,16.42
2018-06-13T09:03:09.500Z,16.55
2018-06-13T09:04:10.444Z,16.58
2018-06-13T09:06:06.429Z,16.69
2018-06-13T09:07:05.413Z,16.80
2018-06-13T09:09:01.387Z,16.82
2018-06-13T09:10:01.370Z,16.85
2018-06-13T09:11:55.848Z,16.87
2018-06-13T09:12:55.814Z,16.84
2018-06-13T09:14:51.840Z,16.95
2018-06-13T09:15:51.782Z,16.94
2018-06-13T09:17:49.228Z,17.07
2018-06-13T09:18:47.768Z,17.03
2018-06-13T09:20:43.737Z,17.15
2018-06-13T09:21:43.669Z,17.13
2018-06-13T09:23:40.140Z,17.17
2018-06-13T09:24:39.638Z,17.18
2018-06-13T09:26:35.645Z,17.27
2018-06-13T09:27:35.603Z,17.20
2018-06-13T09:29:31.581Z,17.25
2018-06-13T09:30:31.555Z,17.25
2018-06-13T09:32:27.606Z,17.32
2018-06-13T09:33:27.503Z,17.32
2018-06-13T09:35:25.391Z,17.17
2018-06-13T09:36:23.452Z,17.25
2018-06-13T09:38:20.429Z,17.22
2018-06-13T09:39:19.417Z,17.32
2018-06-13T09:41:14.875Z,17.24
2018-06-13T09:42:14.394Z,17.20
2018-06-13T09:44:11.309Z,17.09
2018-06-13T09:45:10.309Z,17.09
2018-06-13T09:47:06.900Z,17.05
2018-06-13T09:48:05.770Z,17.03
2018-06-13T09:50:01.827Z,16.97
2018-06-13T09:51:02.737Z,16.92
2018-06-13T09:52:57.711Z,16.94
2018-06-13T09:53:58.204Z,16.88
2018-06-13T09:55:54.701Z,16.81
2018-06-13T09:56:53.668Z,16.87
2018-06-13T09:58:50.628Z,16.73
2018-06-13T09:59:49.632Z,16.66
2018-06-13T10:01:44.146Z,16.62
2018-06-13T10:02:44.091Z,16.58
2018-06-13T10:04:38.607Z,16.52
2018-06-13T10:05:38.547Z,16.57
2018-06-13T10:07:35.516Z,16.52
2018-06-13T10:08:34.533Z,16.52
2018-06-13T10:10:30.952Z,16.62
2018-06-13T10:11:31.886Z,16.58
2018-06-13T10:13:26.357Z,16.72
2018-06-13T10:14:26.367Z,16.76
2018-06-13T10:16:22.823Z,16.91
2018-06-13T10:17:22.306Z,16.95
2018-06-13T10:19:18.778Z,17.05
2018-06-13T10:20:18.248Z,17.06
2018-06-13T10:22:12.760Z,17.07
2018-06-13T10:23:12.717Z,17.07
2018-06-13T10:25:07.666Z,17.18
2018-06-13T10:26:07.150Z,17.09
2018-06-13T10:28:03.118Z,17.10
2018-06-13T10:29:04.105Z,16.99
2018-06-13T10:31:00.068Z,17.06
2018-06-13T10:31:59.569Z,17.05
2018-06-13T10:33:55.519Z,17.18
2018-06-13T10:34:54.976Z,17.24
2018-06-13T10:36:51.935Z,17.42
2018-06-13T10:37:50.932Z,17.45
2018-06-13T10:39:47.442Z,17.54
2018-06-13T10:40:46.903Z,17.60
2018-06-13T10:42:42.882Z,17.58
2018-06-13T10:43:43.357Z,17.57
2018-06-13T10:45:38.830Z,17.49
2018-06-13T10:46:38.823Z,17.54
2018-06-13T10:48:34.750Z,17.46
2018-06-13T10:49:35.758Z,17.40
2018-06-13T10:51:31.717Z,17.20
2018-06-13T10:52:31.221Z,17.17
2018-06-13T10:54:27.185Z,17.12
2018-06-13T10:55:28.196Z,17.12
2018-06-13T10:57:23.647Z,16.99
2018-06-13T10:58:22.650Z,16.94
2018-06-13T11:00:19.120Z,16.77
2018-06-13T11:01:18.579Z,16.80
2018-06-13T11:03:15.030Z,16.77
2018-06-13T11:04:14.519Z,16.88
2018-06-13T11:06:11.473Z,16.91
2018-06-13T11:07:10.484Z,16.88
2018-06-13T11:09:07.446Z,16.94
2018-06-13T11:10:06.449Z,16.94
2018-06-13T11:12:02.950Z,16.94
2018-06-13T11:13:03.406Z,17.03
2018-06-13T11:14:59.878Z,17.02
2018-06-13T11:15:58.350Z,17.09
2018-06-13T11:17:54.337Z,17.21
2018-06-13T11:18:54.326Z,17.22
2018-06-13T11:20:50.254Z,17.35
2018-06-13T11:21:50.232Z,17.42
2018-06-13T11:23:46.165Z,17.43
2018-06-13T11:24:46.169Z,17.38
2018-06-13T11:26:42.144Z,17.35
2018-06-13T11:27:42.140Z,17.40
2018-06-13T11:29:38.085Z,17.32
2018-06-13T11:30:38.109Z,17.40
2018-06-13T11:32:34.545Z,17.38
2018-06-13T11:33:35.534Z,17.43
2018-06-13T11:35:33.025Z,17.38
2018-06-13T11:36:32.997Z,17.40
2018-06-13T11:38:28.651Z,17.36
2018-06-13T11:39:28.179Z,17.31
2018-06-13T11:41:37.606Z,17.42
2018-06-13T11:42:35.618Z,17.42
2018-06-13T11:44:32.078Z,17.57
2018-06-13T11:45:31.568Z,17.47
2018-06-13T11:47:27.554Z,17.40
2018-06-13T11:48:27.550Z,17.38
2018-06-13T11:50:23.990Z,17.42
2018-06-13T11:51:25.004Z,17.39
2018-06-13T11:53:20.429Z,17.32
2018-06-13T11:55:35.442Z,17.46
2018-06-13T11:56:35.449Z,17.42
2018-06-13T11:58:33.423Z,17.35
2018-06-13T11:59:33.409Z,17.43
2018-06-13T12:01:29.335Z,17.38
2018-06-13T12:02:29.351Z,17.38
2018-06-13T12:04:25.309Z,17.50
2018-06-13T12:05:25.315Z,17.47
2018-06-13T12:07:21.295Z,17.49
2018-06-13T12:08:21.238Z,17.47
2018-06-13T12:10:19.311Z,17.60
2018-06-13T12:11:20.213Z,17.65
2018-06-13T12:13:16.331Z,17.65
2018-06-13T12:16:12.249Z,17.71
2018-06-13T12:17:11.262Z,17.86
2018-06-13T12:19:07.692Z,17.95
2018-06-13T12:20:07.193Z,18.01
2018-06-13T12:22:06.147Z,18.03
2018-06-13T12:23:04.809Z,17.99
2018-06-13T12:25:03.297Z,18.20
2018-06-13T12:26:03.767Z,18.14
2018-06-13T12:27:58.931Z,18.36
2018-06-13T12:28:58.898Z,18.38
2018-06-13T12:30:54.814Z,18.61
2018-06-13T12:31:56.356Z,18.50
2018-06-13T12:33:52.948Z,18.59
2018-06-13T12:34:53.775Z,18.61
2018-06-13T12:36:49.418Z,18.44
2018-06-13T12:37:49.413Z,18.41
2018-06-13T12:39:45.382Z,18.23
2018-06-13T12:40:44.861Z,18.20
2018-06-13T12:42:41.363Z,18.11
2018-06-13T12:43:40.857Z,18.11
2018-06-13T12:45:36.780Z,18.08
2018-06-13T12:46:37.292Z,18.01
2018-06-13T12:48:33.744Z,18.08
2018-06-13T12:49:33.733Z,17.94
2018-06-13T12:51:28.703Z,18.02
2018-06-13T12:52:28.734Z,18.01
2018-06-13T12:54:24.664Z,18.01
2018-06-13T12:55:24.668Z,18.03
2018-06-13T12:57:20.634Z,18.02
2018-06-13T12:59:36.604Z,18.19
2018-06-13T13:00:36.585Z,18.24
2018-06-13T13:02:32.596Z,18.36
2018-06-13T13:03:32.599Z,18.36
2018-06-13T13:05:28.578Z,18.63
2018-06-13T13:06:28.557Z,18.78
2018-06-13T13:08:24.554Z,18.96
2018-06-13T13:09:25.017Z,19.12
2018-06-13T13:11:20.469Z,19.23
2018-06-13T13:12:20.504Z,19.25
2018-06-13T13:14:16.463Z,19.37
2018-06-13T13:15:16.429Z,19.32
2018-06-13T13:17:15.390Z,19.27
2018-06-13T13:18:14.402Z,19.32
2018-06-13T13:20:10.421Z,19.52
2018-06-13T13:21:10.372Z,19.55
2018-06-13T13:23:08.847Z,19.72
2018-06-13T13:24:09.343Z,19.78
2018-06-13T13:26:04.477Z,19.93
2018-06-13T13:27:04.499Z,19.93
2018-06-13T13:29:00.466Z,19.98
2018-06-13T13:30:00.451Z,19.86
2018-06-13T13:31:56.389Z,19.75
2018-06-13T13:32:56.399Z,19.95
2018-06-13T13:34:55.397Z,20.34
2018-06-13T13:37:10.330Z,20.29
2018-06-13T13:38:10.830Z,20.22
2018-06-13T13:40:07.304Z,19.98
2018-06-13T13:41:06.293Z,19.83
2018-06-13T13:43:03.287Z,19.70
2018-06-13T13:44:03.142Z,19.72
2018-06-13T13:46:01.654Z,19.56
2018-06-13T13:47:01.288Z,19.56
2018-06-13T13:49:03.231Z,19.43
2018-06-13T13:50:02.740Z,19.37
2018-06-13T13:51:59.796Z,19.32
2018-06-13T13:53:00.805Z,19.25
2018-06-13T13:54:56.768Z,19.12
2018-06-13T13:57:11.761Z,19.09
2018-06-13T13:58:12.765Z,19.19
2018-06-13T14:00:11.758Z,19.12
2018-06-13T14:01:12.703Z,19.17
2018-06-13T14:03:08.880Z,19.30
2018-06-13T14:04:09.385Z,19.40
2018-06-13T14:06:04.854Z,19.55
2018-06-13T14:07:06.381Z,19.45
2018-06-13T14:09:01.348Z,19.72
2018-06-13T14:10:00.800Z,19.57
2018-06-13T14:11:57.788Z,19.53
2018-06-13T14:12:56.770Z,19.53
2018-06-13T14:14:53.226Z,19.67
2018-06-13T14:15:54.245Z,19.86
2018-06-13T14:17:50.721Z,20.08
2018-06-13T14:18:53.619Z,20.11
2018-06-13T14:20:49.176Z,20.10
2018-06-13T14:21:50.684Z,20.16
2018-06-13T14:23:46.259Z,20.10
2018-06-13T14:24:45.266Z,20.10
2018-06-13T14:26:41.242Z,19.97
2018-06-13T14:27:42.216Z,20.04
2018-06-13T14:29:37.706Z,19.85
2018-06-13T14:30:37.674Z,19.82
2018-06-13T14:32:33.150Z,19.72
2018-06-13T14:33:34.163Z,19.74
2018-06-13T14:35:30.534Z,19.80
2018-06-13T14:36:28.614Z,19.82
2018-06-13T14:38:24.614Z,20.16
2018-06-13T14:39:26.073Z,20.15
2018-06-13T14:41:23.552Z,20.32
2018-06-13T14:42:22.713Z,20.40
2018-06-13T14:44:18.692Z,20.40
2018-06-13T14:45:19.189Z,20.34
2018-06-13T14:47:14.643Z,20.44
2018-06-13T14:48:15.144Z,20.42
2018-06-13T14:50:11.187Z,20.49
2018-06-13T14:52:43.673Z,20.49
2018-06-13T14:54:45.103Z,20.54
2018-06-13T14:55:44.085Z,20.38
2018-06-13T14:57:39.245Z,20.08
2018-06-13T14:58:40.721Z,20.08
2018-06-13T15:00:36.612Z,20.07
2018-06-13T15:01:35.198Z,20.05
2018-06-13T15:03:31.138Z,20.07
2018-06-13T15:04:31.121Z,20.11
2018-06-13T15:06:29.241Z,20.16
2018-06-13T15:07:29.254Z,20.11
2018-06-13T15:09:26.200Z,20.32
2018-06-13T15:10:26.214Z,20.38
2018-06-13T15:12:21.712Z,20.27
2018-06-13T15:13:21.267Z,20.32
2018-06-13T15:15:20.161Z,20.32
2018-06-13T15:16:19.666Z,20.23
2018-06-13T15:18:19.169Z,20.27
2018-06-13T15:19:17.300Z,20.19
2018-06-13T15:21:13.760Z,20.07
2018-06-13T15:22:13.755Z,19.90
2018-06-13T15:24:09.311Z,19.87
2018-06-13T15:25:09.213Z,19.79
2018-06-13T15:27:07.182Z,19.70
2018-06-13T15:28:07.699Z,19.74
2018-06-13T15:30:05.172Z,19.70
2018-06-13T15:31:05.800Z,19.61
2018-06-13T15:33:03.122Z,19.46
2018-06-13T15:34:03.584Z,19.38
2018-06-13T15:36:02.055Z,19.45
2018-06-13T15:37:01.062Z,19.34
2018-06-13T15:39:10.578Z,19.31
2018-06-13T15:40:12.941Z,19.32
2018-06-13T15:42:17.245Z,19.37
2018-06-13T15:44:33.194Z,19.34
2018-06-13T15:45:34.717Z,19.35
2018-06-13T15:47:32.689Z,19.25
2018-06-13T15:48:33.591Z,19.37
2018-06-13T15:50:29.348Z,19.46
2018-06-13T15:51:29.279Z,19.43
2018-06-13T15:53:25.269Z,19.40
2018-06-13T15:55:43.252Z,19.63
2018-06-13T15:56:44.702Z,19.57
2018-06-13T15:58:53.203Z,19.71
2018-06-13T15:59:54.165Z,19.64
2018-06-13T16:02:21.003Z,19.43
2018-06-13T16:04:18.965Z,19.55
2018-06-13T16:05:16.083Z,19.57
2018-06-13T16:07:24.416Z,19.72
2018-06-13T16:09:40.363Z,19.70
2018-06-13T16:11:55.340Z,19.67
2018-06-13T16:12:55.852Z,19.68
2018-06-13T16:14:53.306Z,19.64
2018-06-13T16:15:54.318Z,19.63
2018-06-13T16:17:51.289Z,19.68
2018-06-13T16:18:52.773Z,19.70
2018-06-13T16:20:47.227Z,19.63
2018-06-13T16:21:48.819Z,19.68
2018-06-13T16:23:43.303Z,19.64
2018-06-13T16:26:01.353Z,19.79
2018-06-13T16:27:01.369Z,19.90
2018-06-13T16:28:57.292Z,19.98
2018-06-13T16:29:57.837Z,20.12
2018-06-13T16:31:53.766Z,19.92
2018-06-13T16:32:53.263Z,19.85
2018-06-13T16:34:47.729Z,19.71
2018-06-13T16:35:47.794Z,19.71
2018-06-13T16:37:45.200Z,19.52
2018-06-13T16:38:45.202Z,19.47
2018-06-13T16:40:40.665Z,19.57
2018-06-13T16:41:39.670Z,19.65
2018-06-13T16:43:38.594Z,19.83
2018-06-13T16:44:40.079Z,20.10
2018-06-13T16:46:33.556Z,20.37
2018-06-13T16:47:33.549Z,20.86
2018-06-13T16:49:29.628Z,21.31
2018-06-13T16:50:29.503Z,21.36
2018-06-13T16:52:25.474Z,21.73
2018-06-13T16:53:25.554Z,21.49
2018-06-13T16:55:21.463Z,21.46
2018-06-13T16:56:21.458Z,21.25
2018-06-13T16:58:17.389Z,20.71
2018-06-13T16:59:17.912Z,20.51
2018-06-13T17:01:15.850Z,20.29
2018-06-13T17:02:15.319Z,20.08
2018-06-13T17:04:13.794Z,20.15
2018-06-13T17:05:13.448Z,20.07
2018-06-13T17:07:11.440Z,20.15
2018-06-13T17:08:09.467Z,20.10
2018-06-13T17:10:05.409Z,20.12
2018-06-13T17:11:05.434Z,20.04
2018-06-13T17:13:04.387Z,20.00
2018-06-13T17:14:03.907Z,19.97
2018-06-13T17:16:01.376Z,19.82
2018-06-13T17:17:01.363Z,19.74
2018-06-13T17:18:59.336Z,19.70
2018-06-13T17:19:59.335Z,19.68
2018-06-13T17:21:57.351Z,19.56
2018-06-13T17:22:57.303Z,19.61
2018-06-13T17:24:55.283Z,19.60
2018-06-13T17:25:55.279Z,19.60
2018-06-13T17:27:53.313Z,19.56
2018-06-13T17:28:53.259Z,19.60
2018-06-13T17:30:52.204Z,19.45
2018-06-13T17:31:51.172Z,19.47
2018-06-13T17:33:49.315Z,19.30
2018-06-13T17:34:49.309Z,19.28
2018-06-13T17:36:45.333Z,19.28
2018-06-13T17:37:45.289Z,19.23
2018-06-13T17:39:44.216Z,19.12
2018-06-13T17:40:43.726Z,19.16
2018-06-13T17:42:41.723Z,19.16
2018-06-13T17:43:41.182Z,19.15
2018-06-13T17:45:37.705Z,19.13
2018-06-13T17:46:37.149Z,19.19
2018-06-13T17:48:33.135Z,18.93
2018-06-13T17:49:33.109Z,18.96
2018-06-13T17:51:29.557Z,18.89
2018-06-13T17:52:29.065Z,18.94
2018-06-13T17:54:25.539Z,18.96
2018-06-13T17:55:25.531Z,19.00
2018-06-13T17:57:20.969Z,19.00
2018-06-13T17:58:20.952Z,19.00
2018-06-13T18:00:17.445Z,18.89
2018-06-13T18:01:17.853Z,18.76
2018-06-13T18:03:13.828Z,18.76
2018-06-13T18:04:12.883Z,18.71
2018-06-13T18:06:08.836Z,18.81
2018-06-13T18:07:08.818Z,18.74
2018-06-13T18:09:06.940Z,18.75
2018-06-13T18:10:08.784Z,18.75
2018-06-13T18:12:02.970Z,18.65
2018-06-13T18:13:04.425Z,18.63
2018-06-13T18:15:01.867Z,18.65
2018-06-13T18:16:01.119Z,18.63
2018-06-13T18:17:59.521Z,18.68
2018-06-13T18:18:59.007Z,18.66
2018-06-13T18:20:59.948Z,18.65
2018-06-13T18:21:59.457Z,18.60
2018-06-13T18:23:58.449Z,18.63
2018-06-13T18:24:57.577Z,18.50
2018-06-13T18:26:56.043Z,18.50
2018-06-13T18:27:55.692Z,18.41
2018-06-13T18:29:53.687Z,18.47
2018-06-13T18:30:54.139Z,18.44
2018-06-13T18:32:51.115Z,18.39
2018-06-13T18:33:49.595Z,18.42
2018-06-13T18:35:48.608Z,18.39
2018-06-13T18:36:47.741Z,18.42
2018-06-13T18:38:43.723Z,18.35
2018-06-13T18:39:43.719Z,18.39
2018-06-13T18:41:39.677Z,18.38
2018-06-13T18:42:39.708Z,18.39
2018-06-13T18:44:38.187Z,18.44
2018-06-13T18:45:37.717Z,18.36
2018-06-13T18:47:33.611Z,18.34
2018-06-13T18:48:34.127Z,18.42
2018-06-13T18:50:28.087Z,18.41
2018-06-13T18:51:28.073Z,18.44
2018-06-13T18:53:26.032Z,18.45
2018-06-13T18:54:24.073Z,18.38
2018-06-13T18:56:21.083Z,18.36
2018-06-13T18:57:20.963Z,18.38
2018-06-13T18:59:18.085Z,18.36
2018-06-13T19:00:18.026Z,18.36
2018-06-13T19:02:16.031Z,18.44
2018-06-13T19:03:17.017Z,18.36
2018-06-13T19:05:16.498Z,18.34
2018-06-13T19:06:17.484Z,18.39